sensor_id;sensor_type;location;lat;lon;timestamp;P1;durP1;ratioP1;P2;durP2;ratioP2
5981;SDS011;3018;48.730;9.336;2023-09-30T00:01:12;11.75;;;5.63;;
5981;SDS011;3018;48.730;9.336;2023-09-30T00:03:39;9.02;;;4.85;;
5981;SDS011;3018;48.730;9.336;2023-09-30T00:06:06;9.75;;;4.75;;
5981;SDS011;3018;48.730;9.336;2023-09-30T00:08:32;10.00;;;4.88;;
5981;SDS011;3018;48.730;9.336;2023-09-30T00:10:58;10.05;;;5.10;;
5981;SDS011;3018;48.730;9.336;2023-09-30T00:13:25;10.95;;;4.82;;
5981;SDS011;3018;48.730;9.336;2023-09-30T00:15:51;9.85;;;4.90;;
5981;SDS011;3018;48.730;9.336;2023-09-30T00:18:19;6.65;;;4.32;;
5981;SDS011;3018;48.730;9.336;2023-09-30T00:20:45;9.52;;;4.78;;
5981;SDS011;3018;48.730;9.336;2023-09-30T00:23:13;7.85;;;4.43;;
5981;SDS011;3018;48.730;9.336;2023-09-30T00:25:39;7.55;;;4.40;;
5981;SDS011;3018;48.730;9.336;2023-09-30T00:28:05;7.85;;;4.50;;
5981;SDS011;3018;48.730;9.336;2023-09-30T00:30:32;8.38;;;4.38;;
5981;SDS011;3018;48.730;9.336;2023-09-30T00:32:58;9.55;;;4.20;;
5981;SDS011;3018;48.730;9.336;2023-09-30T00:35:26;7.15;;;4.40;;
5981;SDS011;3018;48.730;9.336;2023-09-30T00:37:52;5.45;;;3.63;;
5981;SDS011;3018;48.730;9.336;2023-09-30T00:40:19;6.13;;;3.47;;
5981;SDS011;3018;48.730;9.336;2023-09-30T00:42:45;7.93;;;4.03;;
5981;SDS011;3018;48.730;9.336;2023-09-30T00:45:11;9.07;;;3.67;;
5981;SDS011;3018;48.730;9.336;2023-09-30T00:47:38;8.10;;;4.00;;
5981;SDS011;3018;48.730;9.336;2023-09-30T00:50:04;7.05;;;4.20;;
5981;SDS011;3018;48.730;9.336;2023-09-30T00:52:34;6.72;;;4.18;;
5981;SDS011;3018;48.730;9.336;2023-09-30T00:55:01;4.10;;;3.10;;
5981;SDS011;3018;48.730;9.336;2023-09-30T00:57:28;6.45;;;3.35;;
5981;SDS011;3018;48.730;9.336;2023-09-30T00:59:55;5.20;;;3.15;;
5981;SDS011;3018;48.730;9.336;2023-09-30T01:02:22;5.90;;;3.58;;
5981;SDS011;3018;48.730;9.336;2023-09-30T01:04:49;5.55;;;3.60;;
5981;SDS011;3018;48.730;9.336;2023-09-30T01:07:16;6.68;;;3.60;;
5981;SDS011;3018;48.730;9.336;2023-09-30T01:09:43;5.38;;;3.42;;
5981;SDS011;3018;48.730;9.336;2023-09-30T01:12:11;5.45;;;3.15;;
5981;SDS011;3018;48.730;9.336;2023-09-30T01:14:37;6.85;;;3.58;;
5981;SDS011;3018;48.730;9.336;2023-09-30T01:17:05;5.20;;;3.15;;
5981;SDS011;3018;48.730;9.336;2023-09-30T01:19:34;6.00;;;3.22;;
5981;SDS011;3018;48.730;9.336;2023-09-30T01:22:02;8.80;;;2.88;;
5981;SDS011;3018;48.730;9.336;2023-09-30T01:24:29;4.20;;;3.10;;
5981;SDS011;3018;48.730;9.336;2023-09-30T01:26:55;4.13;;;2.50;;
5981;SDS011;3018;48.730;9.336;2023-09-30T01:29:22;5.22;;;2.53;;
5981;SDS011;3018;48.730;9.336;2023-09-30T01:31:50;3.10;;;2.55;;
5981;SDS011;3018;48.730;9.336;2023-09-30T01:34:17;2.67;;;2.00;;
5981;SDS011;3018;48.730;9.336;2023-09-30T01:36:44;4.75;;;2.40;;
5981;SDS011;3018;48.730;9.336;2023-09-30T01:39:11;4.38;;;2.42;;
5981;SDS011;3018;48.730;9.336;2023-09-30T01:41:38;2.10;;;1.88;;
5981;SDS011;3018;48.730;9.336;2023-09-30T01:44:05;3.40;;;2.10;;
5981;SDS011;3018;48.730;9.336;2023-09-30T01:46:31;2.00;;;1.80;;
5981;SDS011;3018;48.730;9.336;2023-09-30T01:48:57;2.05;;;1.73;;
5981;SDS011;3018;48.730;9.336;2023-09-30T01:51:24;2.25;;;1.95;;
5981;SDS011;3018;48.730;9.336;2023-09-30T01:53:50;2.90;;;2.10;;
5981;SDS011;3018;48.730;9.336;2023-09-30T01:56:18;2.58;;;1.88;;
5981;SDS011;3018;48.730;9.336;2023-09-30T01:58:44;3.95;;;2.20;;
5981;SDS011;3018;48.730;9.336;2023-09-30T02:01:10;2.53;;;1.88;;
5981;SDS011;3018;48.730;9.336;2023-09-30T02:03:37;3.25;;;2.40;;
5981;SDS011;3018;48.730;9.336;2023-09-30T02:06:03;3.33;;;2.08;;
5981;SDS011;3018;48.730;9.336;2023-09-30T02:08:29;2.70;;;2.10;;
5981;SDS011;3018;48.730;9.336;2023-09-30T02:10:56;2.95;;;2.20;;
5981;SDS011;3018;48.730;9.336;2023-09-30T02:13:24;3.00;;;2.40;;
5981;SDS011;3018;48.730;9.336;2023-09-30T02:15:50;4.63;;;2.72;;
5981;SDS011;3018;48.730;9.336;2023-09-30T02:18:17;3.55;;;2.50;;
5981;SDS011;3018;48.730;9.336;2023-09-30T02:20:43;4.93;;;2.90;;
5981;SDS011;3018;48.730;9.336;2023-09-30T02:23:10;3.83;;;3.08;;
5981;SDS011;3018;48.730;9.336;2023-09-30T02:25:36;4.93;;;3.20;;
5981;SDS011;3018;48.730;9.336;2023-09-30T02:28:03;6.65;;;2.88;;
5981;SDS011;3018;48.730;9.336;2023-09-30T02:30:30;3.55;;;2.30;;
5981;SDS011;3018;48.730;9.336;2023-09-30T02:32:57;3.67;;;2.22;;
5981;SDS011;3018;48.730;9.336;2023-09-30T02:35:24;2.30;;;2.03;;
5981;SDS011;3018;48.730;9.336;2023-09-30T02:37:51;3.55;;;2.20;;
5981;SDS011;3018;48.730;9.336;2023-09-30T02:40:17;3.03;;;2.25;;
5981;SDS011;3018;48.730;9.336;2023-09-30T02:42:45;5.80;;;2.95;;
5981;SDS011;3018;48.730;9.336;2023-09-30T02:45:11;6.47;;;3.35;;
5981;SDS011;3018;48.730;9.336;2023-09-30T02:47:39;3.80;;;3.10;;
5981;SDS011;3018;48.730;9.336;2023-09-30T02:50:06;5.75;;;2.80;;
5981;SDS011;3018;48.730;9.336;2023-09-30T02:52:33;5.22;;;2.47;;
5981;SDS011;3018;48.730;9.336;2023-09-30T02:54:59;4.25;;;2.75;;
5981;SDS011;3018;48.730;9.336;2023-09-30T02:57:27;2.70;;;2.50;;
5981;SDS011;3018;48.730;9.336;2023-09-30T02:59:53;5.57;;;2.75;;
5981;SDS011;3018;48.730;9.336;2023-09-30T03:02:21;4.38;;;2.55;;
5981;SDS011;3018;48.730;9.336;2023-09-30T03:04:49;2.80;;;2.28;;
5981;SDS011;3018;48.730;9.336;2023-09-30T03:07:16;3.28;;;3.00;;
5981;SDS011;3018;48.730;9.336;2023-09-30T03:09:43;5.07;;;2.80;;
5981;SDS011;3018;48.730;9.336;2023-09-30T03:12:09;4.20;;;2.90;;
5981;SDS011;3018;48.730;9.336;2023-09-30T03:14:37;3.42;;;3.00;;
5981;SDS011;3018;48.730;9.336;2023-09-30T03:17:05;3.72;;;2.90;;
5981;SDS011;3018;48.730;9.336;2023-09-30T03:19:36;4.80;;;3.10;;
5981;SDS011;3018;48.730;9.336;2023-09-30T03:22:04;3.28;;;2.70;;
5981;SDS011;3018;48.730;9.336;2023-09-30T03:24:31;3.47;;;3.03;;
5981;SDS011;3018;48.730;9.336;2023-09-30T03:26:57;5.85;;;3.15;;
5981;SDS011;3018;48.730;9.336;2023-09-30T03:29:23;4.10;;;2.95;;
5981;SDS011;3018;48.730;9.336;2023-09-30T03:31:51;6.60;;;3.10;;
5981;SDS011;3018;48.730;9.336;2023-09-30T03:34:17;3.00;;;2.67;;
5981;SDS011;3018;48.730;9.336;2023-09-30T03:36:45;4.82;;;3.00;;
5981;SDS011;3018;48.730;9.336;2023-09-30T03:39:12;3.85;;;2.58;;
5981;SDS011;3018;48.730;9.336;2023-09-30T03:41:40;4.20;;;3.05;;
5981;SDS011;3018;48.730;9.336;2023-09-30T03:44:06;2.60;;;2.40;;
5981;SDS011;3018;48.730;9.336;2023-09-30T03:46:33;4.40;;;2.90;;
5981;SDS011;3018;48.730;9.336;2023-09-30T03:48:59;2.38;;;2.17;;
5981;SDS011;3018;48.730;9.336;2023-09-30T03:51:25;3.17;;;2.38;;
5981;SDS011;3018;48.730;9.336;2023-09-30T03:53:52;2.35;;;2.15;;
5981;SDS011;3018;48.730;9.336;2023-09-30T03:56:19;4.03;;;2.40;;
5981;SDS011;3018;48.730;9.336;2023-09-30T03:58:47;2.30;;;2.10;;
5981;SDS011;3018;48.730;9.336;2023-09-30T04:01:14;7.15;;;2.17;;
5981;SDS011;3018;48.730;9.336;2023-09-30T04:03:41;2.40;;;1.80;;
5981;SDS011;3018;48.730;9.336;2023-09-30T04:06:08;2.30;;;2.00;;
5981;SDS011;3018;48.730;9.336;2023-09-30T04:08:35;2.42;;;2.22;;
5981;SDS011;3018;48.730;9.336;2023-09-30T04:11:01;2.53;;;2.33;;
5981;SDS011;3018;48.730;9.336;2023-09-30T04:13:29;4.88;;;2.28;;
5981;SDS011;3018;48.730;9.336;2023-09-30T04:15:56;3.28;;;2.45;;
5981;SDS011;3018;48.730;9.336;2023-09-30T04:18:23;3.28;;;2.67;;
5981;SDS011;3018;48.730;9.336;2023-09-30T04:20:51;4.32;;;3.08;;
5981;SDS011;3018;48.730;9.336;2023-09-30T04:23:17;7.38;;;3.80;;
5981;SDS011;3018;48.730;9.336;2023-09-30T04:25:45;6.05;;;3.22;;
5981;SDS011;3018;48.730;9.336;2023-09-30T04:28:11;6.15;;;3.40;;
5981;SDS011;3018;48.730;9.336;2023-09-30T04:30:40;4.97;;;3.55;;
5981;SDS011;3018;48.730;9.336;2023-09-30T04:33:06;4.43;;;3.65;;
5981;SDS011;3018;48.730;9.336;2023-09-30T04:35:33;9.65;;;4.72;;
5981;SDS011;3018;48.730;9.336;2023-09-30T04:38:00;9.95;;;4.78;;
5981;SDS011;3018;48.730;9.336;2023-09-30T04:40:27;6.80;;;3.65;;
5981;SDS011;3018;48.730;9.336;2023-09-30T04:42:54;5.50;;;3.65;;
5981;SDS011;3018;48.730;9.336;2023-09-30T04:45:23;6.35;;;3.70;;
5981;SDS011;3018;48.730;9.336;2023-09-30T04:47:52;5.40;;;3.42;;
5981;SDS011;3018;48.730;9.336;2023-09-30T04:50:18;6.57;;;3.58;;
5981;SDS011;3018;48.730;9.336;2023-09-30T04:52:46;4.68;;;3.45;;
5981;SDS011;3018;48.730;9.336;2023-09-30T04:55:13;3.60;;;3.30;;
5981;SDS011;3018;48.730;9.336;2023-09-30T04:57:41;5.63;;;3.20;;
5981;SDS011;3018;48.730;9.336;2023-09-30T05:00:10;3.10;;;2.70;;
5981;SDS011;3018;48.730;9.336;2023-09-30T05:02:37;4.25;;;3.25;;
5981;SDS011;3018;48.730;9.336;2023-09-30T05:05:05;8.88;;;3.60;;
5981;SDS011;3018;48.730;9.336;2023-09-30T05:07:31;4.90;;;3.50;;
5981;SDS011;3018;48.730;9.336;2023-09-30T05:09:58;4.80;;;2.95;;
5981;SDS011;3018;48.730;9.336;2023-09-30T05:12:25;4.20;;;3.15;;
5981;SDS011;3018;48.730;9.336;2023-09-30T05:14:51;5.35;;;3.33;;
5981;SDS011;3018;48.730;9.336;2023-09-30T05:17:20;5.55;;;3.40;;
5981;SDS011;3018;48.730;9.336;2023-09-30T05:19:46;3.28;;;2.97;;
5981;SDS011;3018;48.730;9.336;2023-09-30T05:22:14;4.32;;;3.47;;
5981;SDS011;3018;48.730;9.336;2023-09-30T05:24:43;6.07;;;3.80;;
5981;SDS011;3018;48.730;9.336;2023-09-30T05:27:10;6.28;;;3.80;;
5981;SDS011;3018;48.730;9.336;2023-09-30T05:29:36;7.30;;;4.22;;
5981;SDS011;3018;48.730;9.336;2023-09-30T05:32:02;6.40;;;3.75;;
5981;SDS011;3018;48.730;9.336;2023-09-30T05:34:28;6.20;;;3.75;;
5981;SDS011;3018;48.730;9.336;2023-09-30T05:36:55;4.68;;;3.47;;
5981;SDS011;3018;48.730;9.336;2023-09-30T05:39:22;7.20;;;3.47;;
5981;SDS011;3018;48.730;9.336;2023-09-30T05:41:50;8.77;;;4.05;;
5981;SDS011;3018;48.730;9.336;2023-09-30T05:44:16;5.13;;;3.40;;
5981;SDS011;3018;48.730;9.336;2023-09-30T05:46:43;7.72;;;4.32;;
5981;SDS011;3018;48.730;9.336;2023-09-30T05:49:10;5.45;;;4.10;;
5981;SDS011;3018;48.730;9.336;2023-09-30T05:51:38;9.95;;;4.07;;
5981;SDS011;3018;48.730;9.336;2023-09-30T05:54:05;3.92;;;3.30;;
5981;SDS011;3018;48.730;9.336;2023-09-30T05:56:36;7.45;;;3.80;;
5981;SDS011;3018;48.730;9.336;2023-09-30T05:59:03;4.57;;;3.70;;
5981;SDS011;3018;48.730;9.336;2023-09-30T06:01:30;5.22;;;3.58;;
5981;SDS011;3018;48.730;9.336;2023-09-30T06:03:57;9.38;;;3.60;;
5981;SDS011;3018;48.730;9.336;2023-09-30T06:06:24;6.53;;;3.60;;
5981;SDS011;3018;48.730;9.336;2023-09-30T06:08:51;4.63;;;3.67;;
5981;SDS011;3018;48.730;9.336;2023-09-30T06:11:18;5.57;;;3.75;;
5981;SDS011;3018;48.730;9.336;2023-09-30T06:13:50;4.00;;;3.20;;
5981;SDS011;3018;48.730;9.336;2023-09-30T06:16:17;6.65;;;3.47;;
5981;SDS011;3018;48.730;9.336;2023-09-30T06:18:44;8.75;;;4.35;;
5981;SDS011;3018;48.730;9.336;2023-09-30T06:21:10;5.13;;;3.55;;
5981;SDS011;3018;48.730;9.336;2023-09-30T06:23:36;6.70;;;4.22;;
5981;SDS011;3018;48.730;9.336;2023-09-30T06:26:03;5.25;;;3.65;;
5981;SDS011;3018;48.730;9.336;2023-09-30T06:28:29;7.10;;;3.80;;
5981;SDS011;3018;48.730;9.336;2023-09-30T06:30:58;4.55;;;3.38;;
5981;SDS011;3018;48.730;9.336;2023-09-30T06:33:24;5.55;;;3.35;;
5981;SDS011;3018;48.730;9.336;2023-09-30T06:35:54;5.25;;;3.45;;
5981;SDS011;3018;48.730;9.336;2023-09-30T06:38:20;6.78;;;3.33;;
5981;SDS011;3018;48.730;9.336;2023-09-30T06:40:47;4.82;;;3.28;;
5981;SDS011;3018;48.730;9.336;2023-09-30T06:43:13;4.78;;;3.45;;
5981;SDS011;3018;48.730;9.336;2023-09-30T06:45:40;4.47;;;3.47;;
5981;SDS011;3018;48.730;9.336;2023-09-30T06:48:08;4.05;;;3.15;;
5981;SDS011;3018;48.730;9.336;2023-09-30T06:50:37;9.65;;;3.72;;
5981;SDS011;3018;48.730;9.336;2023-09-30T06:53:03;4.63;;;3.45;;
5981;SDS011;3018;48.730;9.336;2023-09-30T06:55:30;6.60;;;3.33;;
5981;SDS011;3018;48.730;9.336;2023-09-30T06:57:57;6.53;;;3.38;;
5981;SDS011;3018;48.730;9.336;2023-09-30T07:00:23;5.10;;;3.22;;
5981;SDS011;3018;48.730;9.336;2023-09-30T07:02:50;4.88;;;3.10;;
5981;SDS011;3018;48.730;9.336;2023-09-30T07:05:18;8.18;;;3.63;;
5981;SDS011;3018;48.730;9.336;2023-09-30T07:07:44;5.43;;;3.05;;
5981;SDS011;3018;48.730;9.336;2023-09-30T07:10:11;6.45;;;3.28;;
5981;SDS011;3018;48.730;9.336;2023-09-30T07:12:37;4.65;;;2.97;;
5981;SDS011;3018;48.730;9.336;2023-09-30T07:15:04;5.82;;;3.25;;
5981;SDS011;3018;48.730;9.336;2023-09-30T07:17:31;6.28;;;3.00;;
5981;SDS011;3018;48.730;9.336;2023-09-30T07:19:57;4.72;;;2.80;;
5981;SDS011;3018;48.730;9.336;2023-09-30T07:22:25;7.72;;;2.88;;
5981;SDS011;3018;48.730;9.336;2023-09-30T07:24:52;7.80;;;3.38;;
5981;SDS011;3018;48.730;9.336;2023-09-30T07:27:18;6.20;;;3.30;;
5981;SDS011;3018;48.730;9.336;2023-09-30T07:29:44;6.50;;;2.75;;
5981;SDS011;3018;48.730;9.336;2023-09-30T07:32:10;6.18;;;2.80;;
5981;SDS011;3018;48.730;9.336;2023-09-30T07:34:37;7.68;;;3.17;;
5981;SDS011;3018;48.730;9.336;2023-09-30T07:37:03;3.10;;;2.80;;
5981;SDS011;3018;48.730;9.336;2023-09-30T07:39:31;7.13;;;2.85;;
5981;SDS011;3018;48.730;9.336;2023-09-30T07:41:57;5.40;;;3.08;;
5981;SDS011;3018;48.730;9.336;2023-09-30T07:44:23;6.43;;;3.25;;
5981;SDS011;3018;48.730;9.336;2023-09-30T07:46:50;5.97;;;2.95;;
5981;SDS011;3018;48.730;9.336;2023-09-30T07:49:16;7.10;;;3.10;;
5981;SDS011;3018;48.730;9.336;2023-09-30T07:51:42;9.93;;;2.85;;
5981;SDS011;3018;48.730;9.336;2023-09-30T07:54:08;7.63;;;3.08;;
5981;SDS011;3018;48.730;9.336;2023-09-30T07:56:36;6.05;;;2.92;;
5981;SDS011;3018;48.730;9.336;2023-09-30T07:59:02;6.85;;;3.30;;
5981;SDS011;3018;48.730;9.336;2023-09-30T08:01:29;6.93;;;3.15;;
5981;SDS011;3018;48.730;9.336;2023-09-30T08:03:55;4.93;;;3.17;;
5981;SDS011;3018;48.730;9.336;2023-09-30T08:06:22;6.30;;;3.15;;
5981;SDS011;3018;48.730;9.336;2023-09-30T08:08:48;4.60;;;2.80;;
5981;SDS011;3018;48.730;9.336;2023-09-30T08:11:14;5.75;;;3.38;;
5981;SDS011;3018;48.730;9.336;2023-09-30T08:13:42;5.88;;;2.90;;
5981;SDS011;3018;48.730;9.336;2023-09-30T08:16:08;6.22;;;3.38;;
5981;SDS011;3018;48.730;9.336;2023-09-30T08:18:35;6.10;;;3.05;;
5981;SDS011;3018;48.730;9.336;2023-09-30T08:21:02;7.53;;;3.53;;
5981;SDS011;3018;48.730;9.336;2023-09-30T08:23:29;4.95;;;3.50;;
5981;SDS011;3018;48.730;9.336;2023-09-30T08:25:57;7.75;;;3.83;;
5981;SDS011;3018;48.730;9.336;2023-09-30T08:28:24;7.97;;;3.83;;
5981;SDS011;3018;48.730;9.336;2023-09-30T08:30:51;7.00;;;3.40;;
5981;SDS011;3018;48.730;9.336;2023-09-30T08:33:22;4.10;;;2.90;;
5981;SDS011;3018;48.730;9.336;2023-09-30T08:35:49;7.75;;;4.07;;
5981;SDS011;3018;48.730;9.336;2023-09-30T08:38:15;6.55;;;4.03;;
5981;SDS011;3018;48.730;9.336;2023-09-30T08:40:41;9.95;;;4.40;;
5981;SDS011;3018;48.730;9.336;2023-09-30T08:43:10;7.47;;;3.90;;
5981;SDS011;3018;48.730;9.336;2023-09-30T08:45:37;6.82;;;3.45;;
5981;SDS011;3018;48.730;9.336;2023-09-30T08:48:07;8.50;;;3.95;;
5981;SDS011;3018;48.730;9.336;2023-09-30T08:50:33;4.60;;;3.28;;
5981;SDS011;3018;48.730;9.336;2023-09-30T08:52:59;7.20;;;3.78;;
5981;SDS011;3018;48.730;9.336;2023-09-30T08:55:26;5.22;;;3.78;;
5981;SDS011;3018;48.730;9.336;2023-09-30T08:57:53;5.15;;;3.55;;
5981;SDS011;3018;48.730;9.336;2023-09-30T09:00:20;5.93;;;3.90;;
5981;SDS011;3018;48.730;9.336;2023-09-30T09:02:46;4.75;;;3.65;;
5981;SDS011;3018;48.730;9.336;2023-09-30T09:05:14;6.00;;;4.00;;
5981;SDS011;3018;48.730;9.336;2023-09-30T09:07:41;9.48;;;4.53;;
5981;SDS011;3018;48.730;9.336;2023-09-30T09:10:09;5.70;;;4.18;;
5981;SDS011;3018;48.730;9.336;2023-09-30T09:12:36;6.05;;;4.18;;
5981;SDS011;3018;48.730;9.336;2023-09-30T09:15:04;5.72;;;4.50;;
5981;SDS011;3018;48.730;9.336;2023-09-30T09:17:41;8.93;;;4.10;;
5981;SDS011;3018;48.730;9.336;2023-09-30T09:20:08;6.35;;;3.80;;
5981;SDS011;3018;48.730;9.336;2023-09-30T09:22:41;5.10;;;3.83;;
5981;SDS011;3018;48.730;9.336;2023-09-30T09:25:07;10.23;;;3.95;;
5981;SDS011;3018;48.730;9.336;2023-09-30T09:27:34;7.47;;;4.05;;
5981;SDS011;3018;48.730;9.336;2023-09-30T09:30:13;4.70;;;3.58;;
5981;SDS011;3018;48.730;9.336;2023-09-30T09:32:51;5.85;;;3.60;;
5981;SDS011;3018;48.730;9.336;2023-09-30T09:35:19;8.20;;;3.85;;
5981;SDS011;3018;48.730;9.336;2023-09-30T09:37:50;8.27;;;3.70;;
5981;SDS011;3018;48.730;9.336;2023-09-30T09:40:22;4.05;;;3.63;;
5981;SDS011;3018;48.730;9.336;2023-09-30T09:42:48;6.50;;;3.83;;
5981;SDS011;3018;48.730;9.336;2023-09-30T09:45:15;6.78;;;4.05;;
5981;SDS011;3018;48.730;9.336;2023-09-30T09:47:42;6.72;;;3.42;;
5981;SDS011;3018;48.730;9.336;2023-09-30T09:50:09;6.60;;;4.10;;
5981;SDS011;3018;48.730;9.336;2023-09-30T09:52:35;4.60;;;3.75;;
5981;SDS011;3018;48.730;9.336;2023-09-30T09:55:05;6.03;;;3.42;;
5981;SDS011;3018;48.730;9.336;2023-09-30T09:57:32;6.10;;;4.10;;
5981;SDS011;3018;48.730;9.336;2023-09-30T09:59:59;6.18;;;3.47;;
5981;SDS011;3018;48.730;9.336;2023-09-30T10:02:30;5.95;;;3.45;;
5981;SDS011;3018;48.730;9.336;2023-09-30T10:04:56;5.20;;;3.72;;
5981;SDS011;3018;48.730;9.336;2023-09-30T10:07:25;6.15;;;4.28;;
5981;SDS011;3018;48.730;9.336;2023-09-30T10:09:52;11.90;;;4.03;;
5981;SDS011;3018;48.730;9.336;2023-09-30T10:12:20;8.43;;;3.80;;
5981;SDS011;3018;48.730;9.336;2023-09-30T10:14:48;6.22;;;4.03;;
5981;SDS011;3018;48.730;9.336;2023-09-30T10:17:14;8.02;;;4.20;;
5981;SDS011;3018;48.730;9.336;2023-09-30T10:22:24;6.00;;;4.10;;
5981;SDS011;3018;48.730;9.336;2023-09-30T10:24:55;4.93;;;3.90;;
5981;SDS011;3018;48.730;9.336;2023-09-30T10:27:29;8.93;;;4.10;;
5981;SDS011;3018;48.730;9.336;2023-09-30T10:29:57;4.65;;;3.95;;
5981;SDS011;3018;48.730;9.336;2023-09-30T10:32:27;4.78;;;4.00;;
5981;SDS011;3018;48.730;9.336;2023-09-30T10:35:13;7.80;;;4.40;;
5981;SDS011;3018;48.730;9.336;2023-09-30T10:37:41;9.23;;;4.65;;
5981;SDS011;3018;48.730;9.336;2023-09-30T10:40:07;6.72;;;3.97;;
5981;SDS011;3018;48.730;9.336;2023-09-30T10:42:48;6.88;;;4.40;;
5981;SDS011;3018;48.730;9.336;2023-09-30T10:48:10;10.40;;;4.43;;
5981;SDS011;3018;48.730;9.336;2023-09-30T10:50:58;9.23;;;4.22;;
5981;SDS011;3018;48.730;9.336;2023-09-30T10:53:25;7.57;;;4.05;;
5981;SDS011;3018;48.730;9.336;2023-09-30T10:55:53;4.90;;;3.70;;
5981;SDS011;3018;48.730;9.336;2023-09-30T10:58:20;4.82;;;3.42;;
5981;SDS011;3018;48.730;9.336;2023-09-30T11:00:52;6.50;;;3.85;;
5981;SDS011;3018;48.730;9.336;2023-09-30T11:03:19;7.68;;;3.70;;
5981;SDS011;3018;48.730;9.336;2023-09-30T11:05:46;8.48;;;3.97;;
5981;SDS011;3018;48.730;9.336;2023-09-30T11:08:14;8.05;;;4.05;;
5981;SDS011;3018;48.730;9.336;2023-09-30T11:10:46;5.32;;;3.97;;
5981;SDS011;3018;48.730;9.336;2023-09-30T11:13:13;5.40;;;3.90;;
5981;SDS011;3018;48.730;9.336;2023-09-30T11:15:39;6.20;;;3.70;;
5981;SDS011;3018;48.730;9.336;2023-09-30T11:18:15;8.95;;;4.45;;
5981;SDS011;3018;48.730;9.336;2023-09-30T11:20:42;7.00;;;4.45;;
5981;SDS011;3018;48.730;9.336;2023-09-30T11:23:09;6.97;;;4.45;;
5981;SDS011;3018;48.730;9.336;2023-09-30T11:25:37;9.93;;;5.47;;
5981;SDS011;3018;48.730;9.336;2023-09-30T11:28:14;13.20;;;5.30;;
5981;SDS011;3018;48.730;9.336;2023-09-30T11:30:52;7.72;;;5.05;;
5981;SDS011;3018;48.730;9.336;2023-09-30T11:33:18;8.60;;;5.22;;
5981;SDS011;3018;48.730;9.336;2023-09-30T11:35:55;9.30;;;5.20;;
5981;SDS011;3018;48.730;9.336;2023-09-30T11:38:23;9.95;;;5.50;;
5981;SDS011;3018;48.730;9.336;2023-09-30T11:41:04;10.73;;;5.25;;
5981;SDS011;3018;48.730;9.336;2023-09-30T11:43:31;10.45;;;5.63;;
5981;SDS011;3018;48.730;9.336;2023-09-30T11:46:05;10.35;;;6.05;;
5981;SDS011;3018;48.730;9.336;2023-09-30T11:48:33;8.93;;;5.07;;
5981;SDS011;3018;48.730;9.336;2023-09-30T11:51:00;7.93;;;4.88;;
5981;SDS011;3018;48.730;9.336;2023-09-30T11:53:28;10.02;;;5.80;;
5981;SDS011;3018;48.730;9.336;2023-09-30T11:55:55;9.20;;;5.30;;
5981;SDS011;3018;48.730;9.336;2023-09-30T11:58:24;12.52;;;5.00;;
5981;SDS011;3018;48.730;9.336;2023-09-30T12:00:52;9.00;;;5.20;;
5981;SDS011;3018;48.730;9.336;2023-09-30T12:03:19;7.90;;;5.15;;
5981;SDS011;3018;48.730;9.336;2023-09-30T12:05:46;9.02;;;5.18;;
5981;SDS011;3018;48.730;9.336;2023-09-30T12:08:13;8.30;;;5.22;;
5981;SDS011;3018;48.730;9.336;2023-09-30T12:10:39;9.27;;;5.20;;
5981;SDS011;3018;48.730;9.336;2023-09-30T12:13:05;8.50;;;5.40;;
5981;SDS011;3018;48.730;9.336;2023-09-30T12:15:33;11.75;;;5.57;;
5981;SDS011;3018;48.730;9.336;2023-09-30T12:17:59;9.48;;;5.25;;
5981;SDS011;3018;48.730;9.336;2023-09-30T12:20:26;10.75;;;5.55;;
5981;SDS011;3018;48.730;9.336;2023-09-30T12:22:52;9.23;;;5.75;;
5981;SDS011;3018;48.730;9.336;2023-09-30T12:25:19;12.02;;;5.68;;
5981;SDS011;3018;48.730;9.336;2023-09-30T12:27:46;8.32;;;4.90;;
5981;SDS011;3018;48.730;9.336;2023-09-30T12:30:13;10.07;;;5.80;;
5981;SDS011;3018;48.730;9.336;2023-09-30T12:32:41;9.18;;;5.80;;
5981;SDS011;3018;48.730;9.336;2023-09-30T12:35:07;15.70;;;5.60;;
5981;SDS011;3018;48.730;9.336;2023-09-30T12:37:35;10.57;;;5.88;;
5981;SDS011;3018;48.730;9.336;2023-09-30T12:40:03;10.07;;;5.32;;
5981;SDS011;3018;48.730;9.336;2023-09-30T12:42:31;9.98;;;5.75;;
5981;SDS011;3018;48.730;9.336;2023-09-30T12:45:00;8.27;;;5.63;;
5981;SDS011;3018;48.730;9.336;2023-09-30T12:47:26;8.85;;;5.13;;
5981;SDS011;3018;48.730;9.336;2023-09-30T12:49:53;8.15;;;4.97;;
5981;SDS011;3018;48.730;9.336;2023-09-30T12:52:21;8.73;;;4.88;;
5981;SDS011;3018;48.730;9.336;2023-09-30T12:54:48;8.68;;;5.20;;
5981;SDS011;3018;48.730;9.336;2023-09-30T12:57:14;8.77;;;4.60;;
5981;SDS011;3018;48.730;9.336;2023-09-30T12:59:42;8.20;;;4.65;;
5981;SDS011;3018;48.730;9.336;2023-09-30T13:02:11;8.88;;;4.95;;
5981;SDS011;3018;48.730;9.336;2023-09-30T13:04:37;7.90;;;4.90;;
5981;SDS011;3018;48.730;9.336;2023-09-30T13:07:09;8.73;;;5.82;;
5981;SDS011;3018;48.730;9.336;2023-09-30T13:09:36;10.52;;;5.03;;
5981;SDS011;3018;48.730;9.336;2023-09-30T13:12:02;9.10;;;4.95;;
5981;SDS011;3018;48.730;9.336;2023-09-30T13:14:29;10.82;;;5.82;;
5981;SDS011;3018;48.730;9.336;2023-09-30T13:16:55;10.65;;;5.15;;
5981;SDS011;3018;48.730;9.336;2023-09-30T13:19:21;9.85;;;4.95;;
5981;SDS011;3018;48.730;9.336;2023-09-30T13:21:48;10.05;;;5.43;;
5981;SDS011;3018;48.730;9.336;2023-09-30T13:24:15;8.45;;;4.80;;
5981;SDS011;3018;48.730;9.336;2023-09-30T13:26:42;7.50;;;4.88;;
5981;SDS011;3018;48.730;9.336;2023-09-30T13:29:08;10.07;;;5.07;;
5981;SDS011;3018;48.730;9.336;2023-09-30T13:31:36;11.40;;;5.25;;
5981;SDS011;3018;48.730;9.336;2023-09-30T13:34:03;8.27;;;4.97;;
5981;SDS011;3018;48.730;9.336;2023-09-30T13:36:30;9.23;;;5.50;;
5981;SDS011;3018;48.730;9.336;2023-09-30T13:38:56;9.85;;;5.43;;
5981;SDS011;3018;48.730;9.336;2023-09-30T13:41:24;9.77;;;5.53;;
5981;SDS011;3018;48.730;9.336;2023-09-30T13:43:50;11.32;;;5.20;;
5981;SDS011;3018;48.730;9.336;2023-09-30T13:46:17;8.15;;;4.90;;
5981;SDS011;3018;48.730;9.336;2023-09-30T13:48:43;8.73;;;5.53;;
5981;SDS011;3018;48.730;9.336;2023-09-30T13:51:10;7.85;;;5.03;;
5981;SDS011;3018;48.730;9.336;2023-09-30T13:53:36;8.15;;;4.70;;
5981;SDS011;3018;48.730;9.336;2023-09-30T13:56:03;10.55;;;5.30;;
5981;SDS011;3018;48.730;9.336;2023-09-30T13:58:30;9.68;;;5.47;;
5981;SDS011;3018;48.730;9.336;2023-09-30T14:00:57;9.40;;;5.35;;
5981;SDS011;3018;48.730;9.336;2023-09-30T14:03:23;6.68;;;5.28;;
5981;SDS011;3018;48.730;9.336;2023-09-30T14:05:50;9.68;;;5.45;;
5981;SDS011;3018;48.730;9.336;2023-09-30T14:08:18;12.30;;;5.00;;
5981;SDS011;3018;48.730;9.336;2023-09-30T14:10:44;8.65;;;4.75;;
5981;SDS011;3018;48.730;9.336;2023-09-30T14:13:11;9.48;;;5.47;;
5981;SDS011;3018;48.730;9.336;2023-09-30T14:15:39;9.52;;;5.22;;
5981;SDS011;3018;48.730;9.336;2023-09-30T14:18:05;9.07;;;5.68;;
5981;SDS011;3018;48.730;9.336;2023-09-30T14:20:31;8.95;;;5.40;;
5981;SDS011;3018;48.730;9.336;2023-09-30T14:22:58;7.75;;;5.28;;
5981;SDS011;3018;48.730;9.336;2023-09-30T14:25:25;7.88;;;5.00;;
5981;SDS011;3018;48.730;9.336;2023-09-30T14:27:51;7.85;;;5.18;;
5981;SDS011;3018;48.730;9.336;2023-09-30T14:30:18;11.73;;;5.30;;
5981;SDS011;3018;48.730;9.336;2023-09-30T14:32:46;8.27;;;5.13;;
5981;SDS011;3018;48.730;9.336;2023-09-30T14:35:12;9.18;;;5.15;;
5981;SDS011;3018;48.730;9.336;2023-09-30T14:37:40;10.82;;;5.47;;
5981;SDS011;3018;48.730;9.336;2023-09-30T14:40:07;11.73;;;5.55;;
5981;SDS011;3018;48.730;9.336;2023-09-30T14:42:35;12.95;;;5.28;;
5981;SDS011;3018;48.730;9.336;2023-09-30T14:45:02;8.68;;;5.13;;
5981;SDS011;3018;48.730;9.336;2023-09-30T14:47:28;11.23;;;5.55;;
5981;SDS011;3018;48.730;9.336;2023-09-30T14:49:56;7.72;;;5.03;;
5981;SDS011;3018;48.730;9.336;2023-09-30T14:52:22;9.75;;;5.25;;
5981;SDS011;3018;48.730;9.336;2023-09-30T14:54:48;10.77;;;5.13;;
5981;SDS011;3018;48.730;9.336;2023-09-30T14:57:15;10.13;;;5.78;;
5981;SDS011;3018;48.730;9.336;2023-09-30T14:59:44;9.73;;;5.25;;
5981;SDS011;3018;48.730;9.336;2023-09-30T15:02:11;8.40;;;5.00;;
5981;SDS011;3018;48.730;9.336;2023-09-30T15:04:37;9.88;;;4.70;;
5981;SDS011;3018;48.730;9.336;2023-09-30T15:07:05;10.00;;;5.03;;
5981;SDS011;3018;48.730;9.336;2023-09-30T15:09:31;9.77;;;4.78;;
5981;SDS011;3018;48.730;9.336;2023-09-30T15:11:58;17.00;;;5.22;;
5981;SDS011;3018;48.730;9.336;2023-09-30T15:14:24;7.90;;;5.22;;
5981;SDS011;3018;48.730;9.336;2023-09-30T15:16:50;11.80;;;5.70;;
5981;SDS011;3018;48.730;9.336;2023-09-30T15:19:16;11.73;;;5.45;;
5981;SDS011;3018;48.730;9.336;2023-09-30T15:21:43;7.38;;;5.30;;